Time;durP1;ratioP1;P1;durP2;ratioP2;P2;SDS_P1;SDS_P2;PMS_P1;PMS_P2;Temp;Humidity;BMP_temperature;BMP_pressure;BME280_temperature;BME280_humidity;BME280_pressure;Samples;Min_cycle;Max_cycle;Signal;HPM_P1;HPM_P2
2021/12/05 00:21:30;;;;;;;;;;;0.90;99.90;;;;;;5078645;28;19931;-86
2021/12/05 00:24:01;;;;;;;;;;;1.00;99.90;;;;;;5098324;28;19919;-85
2021/12/05 00:26:30;;;;;;;;;;;1.00;99.90;;;;;;5100331;28;19919;-85
2021/12/05 00:29:10;;;;;;;;;;;1.00;99.90;;;;;;5100419;28;19912;-84
2021/12/05 00:31:57;;;;;;;;;;;1.00;99.90;;;;;;5100213;28;19913;-85
2021/12/05 00:34:47;;;;;;;;;;;0.90;99.90;;;;;;5098930;28;19944;-86
2021/12/05 00:45:49;;;;;;;;;;;0.80;99.90;;;;;;5112925;22;19987;-81
2021/12/05 00:48:36;;;;;;;;;;;0.80;99.90;;;;;;5090847;28;19924;-80
2021/12/05 00:59:41;;;;;;;;;;;0.90;99.90;;;;;;5094965;28;19988;-80
2021/12/05 01:02:18;;;;;;;;;;;0.90;99.90;;;;;;5095875;28;20385;-80
2021/12/05 01:05:08;;;;;;;;;;;0.90;99.90;;;;;;5095785;28;19921;-80
2021/12/05 01:10:31;;;;;;;;;;;0.90;99.90;;;;;;5072186;28;19927;-81
2021/12/05 01:13:28;;;;;;;;;;;1.00;99.90;;;;;;5093693;28;19984;-81
2021/12/05 01:15:57;;;;;;;;;;;1.00;99.90;;;;;;5092745;28;19980;-78
2021/12/05 01:18:25;;;;;;;;;;;1.00;99.90;;;;;;5094049;28;19924;-79
2021/12/05 01:20:55;;;;;;;;;;;1.00;99.90;;;;;;5091395;28;19951;-82
2021/12/05 01:23:29;;;;;;;;;;;1.00;99.90;;;;;;5093528;28;19924;-79
2021/12/05 01:26:01;;;;;;;;;;;1.00;99.90;;;;;;5094859;28;19912;-80
2021/12/05 01:28:39;;;;;;;;;;;1.00;99.90;;;;;;5092861;28;19931;-80
2021/12/05 01:31:15;;;;;;;;;;;1.00;99.90;;;;;;5098310;28;19925;-80
2021/12/05 01:33:46;;;;;;;;;;;1.00;99.90;;;;;;5098590;28;19947;-81
2021/12/05 01:36:18;;;;;;;;;;;1.00;99.90;;;;;;5092148;28;19925;-84
2021/12/05 01:38:58;;;;;;;;;;;1.10;99.90;;;;;;5090094;28;20007;-82
2021/12/05 01:47:25;;;;;;;;;;;1.10;99.90;;;;;;5088784;28;19983;-80
2021/12/05 01:52:50;;;;;;;;;;;1.00;99.90;;;;;;5087290;28;19921;-80
2021/12/05 01:55:42;;;;;;;;;;;1.00;99.90;;;;;;5088057;28;19924;-80
2021/12/05 02:01:10;;;;;;;;;;;1.00;99.90;;;;;;5086760;28;19927;-82
2021/12/05 02:12:21;;;;;;;;;;;1.10;99.90;;;;;;5056527;28;19948;-80
2021/12/05 02:31:42;;;;;;;;;;;1.10;99.90;;;;;;5095278;28;19970;-79
2021/12/05 02:34:17;;;;;;;;;;;0.80;99.90;;;;;;5095411;28;20349;-79
2021/12/05 02:36:58;;;;;;;;;;;1.00;99.90;;;;;;5094838;28;19931;-80
2021/12/05 02:39:33;;;;;;;;;;;1.10;99.90;;;;;;5097600;28;19924;-79
2021/12/05 02:42:08;;;;;;;;;;;1.10;99.90;;;;;;5100249;28;19989;-79
2021/12/05 02:44:35;;;;;;;;;;;1.10;99.90;;;;;;5097275;28;20420;-78
2021/12/05 02:47:05;;;;;;;;;;;0.90;99.90;;;;;;5095490;28;19931;-81
2021/12/05 02:49:34;;;;;;;;;;;1.10;99.90;;;;;;5096357;28;19986;-80
2021/12/05 02:52:06;;;;;;;;;;;1.10;99.90;;;;;;5094955;28;19924;-80
2021/12/05 02:54:37;;;;;;;;;;;0.60;99.90;;;;;;5095973;28;20325;-80
2021/12/05 02:57:05;;;;;;;;;;;1.10;99.90;;;;;;5101265;28;20333;-81
2021/12/05 02:59:42;;;;;;;;;;;1.00;99.90;;;;;;5095164;28;19924;-81
2021/12/05 03:02:12;;;;;;;;;;;1.10;99.90;;;;;;5098829;28;19925;-81
2021/12/05 03:04:41;;;;;;;;;;;1.20;99.90;;;;;;5096082;28;19924;-80
2021/12/05 03:07:10;;;;;;;;;;;1.20;99.90;;;;;;5095548;28;19947;-80
2021/12/05 03:09:38;;;;;;;;;;;1.20;99.90;;;;;;5089269;28;19992;-80
2021/12/05 03:12:05;;;;;;;;;;;1.10;99.90;;;;;;5092763;28;19928;-79
2021/12/05 03:14:32;;;;;;;;;;;1.10;99.90;;;;;;5091950;28;19924;-80
2021/12/05 03:16:58;;;;;;;;;;;1.10;99.90;;;;;;5091338;28;19924;-81
2021/12/05 03:19:25;;;;;;;;;;;1.10;99.90;;;;;;5090404;28;19947;-81
2021/12/05 03:21:52;;;;;;;;;;;1.10;99.90;;;;;;5091368;28;19951;-81
2021/12/05 03:24:21;;;;;;;;;;;1.10;99.90;;;;;;5090755;28;20328;-81
2021/12/05 03:26:49;;;;;;;;;;;1.10;99.90;;;;;;5090507;28;19946;-81
2021/12/05 03:29:16;;;;;;;;;;;1.10;99.90;;;;;;5091014;28;19948;-80
2021/12/05 03:31:43;;;;;;;;;;;1.20;99.90;;;;;;5093338;28;19925;-79
2021/12/05 03:34:10;;;;;;;;;;;1.20;99.90;;;;;;5093848;28;19974;-80
2021/12/05 03:36:38;;;;;;;;;;;1.10;99.90;;;;;;5093322;28;19928;-80
2021/12/05 03:39:07;;;;;;;;;;;1.20;99.90;;;;;;5090142;28;19925;-81
2021/12/05 03:41:35;;;;;;;;;;;1.20;99.90;;;;;;5090487;28;19935;-81
2021/12/05 03:44:02;;;;;;;;;;;1.20;99.90;;;;;;5028684;28;1712216;-80
2021/12/05 03:46:29;;;;;;;;;;;1.10;99.90;;;;;;5090858;28;19970;-81
2021/12/05 03:48:57;;;;;;;;;;;2.50;99.90;;;;;;5092032;28;19932;-81
2021/12/05 03:51:25;;;;;;;;;;;1.20;99.90;;;;;;5090501;28;19931;-81
2021/12/05 03:53:52;;;;;;;;;;;1.20;99.90;;;;;;5088503;28;19925;-81
2021/12/05 03:56:18;;;;;;;;;;;1.20;99.90;;;;;;5090373;28;19925;-82
2021/12/05 03:58:46;;;;;;;;;;;1.20;99.90;;;;;;5092093;28;19974;-82
2021/12/05 04:01:13;;;;;;;;;;;1.20;99.90;;;;;;5091558;28;19928;-82
2021/12/05 04:03:41;;;;;;;;;;;1.00;99.90;;;;;;5094100;28;19940;-81
2021/12/05 04:06:08;;;;;;;;;;;1.40;99.90;;;;;;5092316;28;19929;-82
2021/12/05 04:08:35;;;;;;;;;;;1.20;99.90;;;;;;5094137;28;19924;-80
2021/12/05 04:11:03;;;;;;;;;;;1.30;99.90;;;;;;5091286;28;19925;-81
2021/12/05 04:13:31;;;;;;;;;;;1.30;99.90;;;;;;5091027;28;19947;-81
2021/12/05 04:16:01;;;;;;;;;;;1.20;99.90;;;;;;5090238;28;19934;-81
2021/12/05 04:18:27;;;;;;;;;;;1.20;99.90;;;;;;5090868;28;20031;-81
2021/12/05 04:20:54;;;;;;;;;;;1.30;99.90;;;;;;5089223;28;19924;-81
2021/12/05 04:23:21;;;;;;;;;;;1.40;99.90;;;;;;5090426;28;19932;-81
2021/12/05 04:25:50;;;;;;;;;;;1.30;99.90;;;;;;5090463;28;19928;-81
2021/12/05 04:28:18;;;;;;;;;;;1.40;99.90;;;;;;5090648;28;19986;-81
2021/12/05 04:30:44;;;;;;;;;;;1.40;99.90;;;;;;5090721;28;19924;-81
2021/12/05 04:33:12;;;;;;;;;;;1.30;99.90;;;;;;5090950;28;19925;-80
2021/12/05 04:35:38;;;;;;;;;;;1.20;99.90;;;;;;5091577;28;19925;-81
2021/12/05 04:38:05;;;;;;;;;;;0.60;99.90;;;;;;5094090;28;19924;-80
2021/12/05 04:40:33;;;;;;;;;;;1.30;99.90;;;;;;5095782;28;19924;-80
2021/12/05 04:42:59;;;;;;;;;;;1.40;99.90;;;;;;5094482;28;19924;-81
2021/12/05 04:45:27;;;;;;;;;;;1.30;99.90;;;;;;5093052;28;19924;-81
2021/12/05 04:47:55;;;;;;;;;;;1.30;99.90;;;;;;5091793;28;19924;-81
2021/12/05 04:50:23;;;;;;;;;;;1.30;99.90;;;;;;5090837;28;19947;-81
2021/12/05 04:52:50;;;;;;;;;;;1.10;99.90;;;;;;5091176;28;20312;-81
2021/12/05 04:55:17;;;;;;;;;;;1.10;99.90;;;;;;5090467;28;20291;-81
2021/12/05 04:57:44;;;;;;;;;;;1.10;99.90;;;;;;5091013;28;20027;-81
2021/12/05 05:00:14;;;;;;;;;;;1.10;99.90;;;;;;5089663;28;19936;-80
2021/12/05 05:02:43;;;;;;;;;;;1.20;99.90;;;;;;5089210;28;19977;-81
2021/12/05 05:05:11;;;;;;;;;;;1.20;99.90;;;;;;5089790;28;19979;-81
2021/12/05 05:07:40;;;;;;;;;;;1.20;99.90;;;;;;5084740;28;20302;-80
2021/12/05 05:10:08;;;;;;;;;;;1.00;99.90;;;;;;5081694;28;19924;-80
2021/12/05 05:12:35;;;;;;;;;;;1.30;99.90;;;;;;5095424;28;19908;-80
2021/12/05 05:15:01;;;;;;;;;;;1.30;99.90;;;;;;5096697;28;19908;-81
2021/12/05 05:17:28;;;;;;;;;;;0.90;99.90;;;;;;5098748;28;19914;-81
2021/12/05 05:19:58;;;;;;;;;;;1.30;99.90;;;;;;5099225;28;19912;-80
2021/12/05 05:22:35;;;;;;;;;;;1.10;99.90;;;;;;5096321;28;19912;-81
2021/12/05 05:25:31;;;;;;;;;;;1.40;99.90;;;;;;5092997;28;19925;-80
2021/12/05 05:28:25;;;;;;;;;;;1.30;99.90;;;;;;5091673;28;19925;-80
2021/12/05 05:39:09;;;;;;;;;;;1.30;99.90;;;;;;5090620;28;19928;-81
2021/12/05 05:42:24;;;;;;;;;;;3.30;99.90;;;;;;5092695;28;19915;-81
2021/12/05 05:45:14;;;;;;;;;;;1.20;99.90;;;;;;5098305;28;19929;-82
2021/12/05 05:47:52;;;;;;;;;;;1.20;99.90;;;;;;5095638;28;19992;-80
2021/12/05 05:50:20;;;;;;;;;;;1.10;99.90;;;;;;5095553;28;19925;-79
2021/12/05 05:52:47;;;;;;;;;;;1.10;99.90;;;;;;5094599;28;19924;-80
2021/12/05 05:55:14;;;;;;;;;;;1.20;99.90;;;;;;5093755;28;19924;-80
2021/12/05 05:57:46;;;;;;;;;;;1.20;99.90;;;;;;5092314;28;19947;-81
2021/12/05 06:00:16;;;;;;;;;;;1.20;99.90;;;;;;5092902;28;19931;-82
2021/12/05 06:05:28;;;;;;;;;;;1.30;99.90;;;;;;5084656;28;19970;-81
2021/12/05 06:07:55;;;;;;;;;;;1.30;99.90;;;;;;5076925;28;19956;-81
2021/12/05 06:10:23;;;;;;;;;;;1.30;99.90;;;;;;5075748;28;19924;-82
2021/12/05 06:12:51;;;;;;;;;;;1.40;99.90;;;;;;5076090;28;19924;-82
2021/12/05 06:15:19;;;;;;;;;;;1.30;99.90;;;;;;5075378;28;19931;-82
2021/12/05 06:17:46;;;;;;;;;;;0.20;99.90;;;;;;5079040;28;19924;-81
2021/12/05 06:20:15;;;;;;;;;;;1.20;99.90;;;;;;5081405;28;20383;-81
2021/12/05 06:22:41;;;;;;;;;;;1.30;99.90;;;;;;5088425;28;19925;-80
2021/12/05 06:25:10;;;;;;;;;;;1.30;99.90;;;;;;5092745;28;19928;-82
2021/12/05 06:27:37;;;;;;;;;;;1.30;99.90;;;;;;5089015;28;19928;-82
2021/12/05 06:30:11;;;;;;;;;;;1.40;99.90;;;;;;5088422;28;19992;-82
2021/12/05 06:38:11;;;;;;;;;;;1.40;99.90;;;;;;5094707;28;19980;-81
2021/12/05 06:40:58;;;;;;;;;;;1.40;99.90;;;;;;5095089;28;19956;-81
2021/12/05 06:46:13;;;;;;;;;;;1.10;99.90;;;;;;5110782;22;19930;-85
2021/12/05 06:48:40;;;;;;;;;;;-0.20;99.90;;;;;;5086814;28;20303;-86
2021/12/05 06:51:07;;;;;;;;;;;1.20;99.90;;;;;;5086627;28;20370;-85
2021/12/05 06:53:33;;;;;;;;;;;1.20;99.90;;;;;;5084743;28;19939;-85
2021/12/05 06:56:00;;;;;;;;;;;1.30;99.90;;;;;;5084046;28;19974;-86
2021/12/05 06:58:27;;;;;;;;;;;1.40;99.90;;;;;;5084858;28;20268;-86
2021/12/05 07:00:54;;;;;;;;;;;0.90;99.90;;;;;;5086347;28;19924;-86
2021/12/05 07:03:22;;;;;;;;;;;1.40;99.90;;;;;;5085209;28;19960;-86
2021/12/05 07:05:56;;;;;;;;;;;1.40;99.90;;;;;;5085675;28;19924;-84
2021/12/05 07:08:25;;;;;;;;;;;1.30;99.90;;;;;;5087098;28;20031;-85
2021/12/05 07:10:58;;;;;;;;;;;1.00;99.90;;;;;;5088724;28;19928;-85
2021/12/05 07:16:15;;;;;;;;;;;1.30;99.90;;;;;;5094232;28;19908;-83
2021/12/05 07:18:58;;;;;;;;;;;0.80;99.90;;;;;;5101654;28;19939;-82
2021/12/05 07:21:35;;;;;;;;;;;1.40;99.90;;;;;;5100208;28;20018;-85
2021/12/05 07:24:10;;;;;;;;;;;1.30;99.90;;;;;;5099446;28;20374;-85
2021/12/05 07:26:51;;;;;;;;;;;1.30;99.90;;;;;;5090090;28;20271;-85
2021/12/05 07:40:27;;;;;;;;;;;1.30;99.90;;;;;;5100898;28;19935;-84
2021/12/05 07:42:54;;;;;;;;;;;1.30;99.90;;;;;;5091446;28;20394;-84
2021/12/05 07:45:27;;;;;;;;;;;1.20;99.90;;;;;;5088111;28;19935;-86
2021/12/05 07:47:55;;;;;;;;;;;1.30;99.90;;;;;;5090683;28;19924;-87
2021/12/05 07:50:33;;;;;;;;;;;1.60;99.90;;;;;;5092829;28;19924;-87
2021/12/05 07:53:07;;;;;;;;;;;1.20;99.90;;;;;;5096169;28;19908;-83
2021/12/05 07:55:39;;;;;;;;;;;1.20;99.90;;;;;;5098576;28;20004;-85
2021/12/05 07:58:14;;;;;;;;;;;0.10;99.90;;;;;;5097006;28;19963;-84
2021/12/05 08:00:52;;;;;;;;;;;1.20;99.90;;;;;;5090154;28;19970;-84
2021/12/05 08:14:34;;;;;;;;;;;0.80;99.90;;;;;;5081142;28;19927;-84
2021/12/05 08:17:02;;;;;;;;;;;1.20;99.90;;;;;;5084117;28;19951;-84
2021/12/05 08:19:30;;;;;;;;;;;0.30;99.90;;;;;;5084671;28;19924;-85
2021/12/05 08:21:58;;;;;;;;;;;1.10;99.90;;;;;;5086272;28;19925;-85
2021/12/05 08:24:25;;;;;;;;;;;1.20;99.90;;;;;;5085844;28;19946;-85
2021/12/05 08:26:52;;;;;;;;;;;0.20;99.90;;;;;;5087504;28;19925;-85
2021/12/05 08:29:27;;;;;;;;;;;1.10;99.90;;;;;;5087649;28;20402;-85
2021/12/05 08:32:13;;;;;;;;;;;1.50;99.90;;;;;;5088892;28;20310;-86
2021/12/05 08:34:57;;;;;;;;;;;1.40;99.90;;;;;;5087479;28;19998;-85
2021/12/05 08:43:39;;;;;;;;;;;1.30;99.90;;;;;;5045005;28;19928;-86
2021/12/05 09:08:15;;;;;;;;;;;1.40;99.90;;;;;;5084090;28;19951;-86
2021/12/05 09:19:46;;;;;;;;;;;1.50;99.90;;;;;;5088133;28;20295;-86
2021/12/05 09:20:53;;;;;;;;;;;1.30;99.90;;;;;;5084840;28;20370;-84
2021/12/05 09:26:09;;;;;;;;;;;1.30;99.90;;;;;;5086516;28;19920;-83
2021/12/05 09:38:33;;;;;;;;;;;0.40;99.90;;;;;;5077112;28;19946;-85
2021/12/05 09:40:10;;;;;;;;;;;0.90;99.90;;;;;;5086273;28;19927;-85
2021/12/05 09:51:22;;;;;;;;;;;1.50;99.90;;;;;;5086101;28;19927;-85
2021/12/05 10:10:43;;;;;;;;;;;1.40;99.90;;;;;;5043792;28;19960;-86
2021/12/05 10:13:24;;;;;;;;;;;1.40;99.90;;;;;;5043574;28;19925;-85
2021/12/05 10:16:08;;;;;;;;;;;1.50;99.90;;;;;;5066329;28;19932;-85
2021/12/05 10:19:23;;;;;;;;;;;0.30;99.90;;;;;;5087285;28;19974;-85
2021/12/05 10:38:40;;;;;;;;;;;1.50;99.90;;;;;;5080931;28;19924;-84
2021/12/05 10:41:20;;;;;;;;;;;1.90;99.90;;;;;;5101162;28;19924;-85
2021/12/05 10:43:49;;;;;;;;;;;2.00;99.90;;;;;;5101503;28;20021;-85
2021/12/05 10:46:17;;;;;;;;;;;2.00;99.90;;;;;;5099779;28;19947;-83
2021/12/05 10:48:46;;;;;;;;;;;2.00;99.90;;;;;;5101593;28;19924;-84
2021/12/05 10:51:16;;;;;;;;;;;1.90;99.90;;;;;;5096306;28;19924;-86
2021/12/05 10:53:43;;;;;;;;;;;1.70;99.90;;;;;;5094212;28;19925;-86
2021/12/05 10:56:12;;;;;;;;;;;1.90;99.90;;;;;;5092330;28;19935;-85
2021/12/05 10:58:40;;;;;;;;;;;2.00;99.90;;;;;;5092069;28;20333;-84
2021/12/05 11:01:09;;;;;;;;;;;2.10;99.90;;;;;;5090703;28;19970;-84
2021/12/05 11:03:36;;;;;;;;;;;1.90;99.90;;;;;;5091436;28;19924;-85
2021/12/05 11:06:03;;;;;;;;;;;2.00;99.90;;;;;;5089340;28;19925;-86
2021/12/05 11:08:36;;;;;;;;;;;2.00;99.90;;;;;;5090117;28;19928;-86
2021/12/05 11:11:06;;;;;;;;;;;2.00;99.90;;;;;;5089633;28;19932;-85
2021/12/05 11:13:35;;;;;;;;;;;2.00;99.90;;;;;;5090505;28;19954;-85
2021/12/05 11:16:02;;;;;;;;;;;2.00;99.90;;;;;;5089963;28;19951;-85
2021/12/05 11:18:41;;;;;;;;;;;2.00;99.90;;;;;;5089660;28;19974;-84
2021/12/05 11:21:22;;;;;;;;;;;1.90;99.90;;;;;;5089770;28;19925;-85
2021/12/05 11:24:04;;;;;;;;;;;2.20;99.90;;;;;;5089743;28;19951;-86
2021/12/05 11:26:32;;;;;;;;;;;2.00;99.90;;;;;;5094837;28;19925;-85
2021/12/05 11:28:59;;;;;;;;;;;2.00;99.90;;;;;;5092284;28;19931;-86
2021/12/05 11:31:26;;;;;;;;;;;2.00;99.90;;;;;;5092458;28;19947;-85
2021/12/05 11:33:55;;;;;;;;;;;1.80;99.90;;;;;;5099480;28;19934;-86
2021/12/05 11:36:23;;;;;;;;;;;1.80;99.90;;;;;;5097418;28;19928;-85
2021/12/05 11:38:49;;;;;;;;;;;1.90;99.90;;;;;;5095508;28;19923;-84
2021/12/05 11:41:20;;;;;;;;;;;1.90;99.90;;;;;;5084460;28;19975;-82
2021/12/05 11:43:51;;;;;;;;;;;1.90;99.90;;;;;;5082057;28;19964;-83
2021/12/05 11:46:19;;;;;;;;;;;2.10;99.90;;;;;;5087264;28;19925;-85
2021/12/05 11:48:47;;;;;;;;;;;2.00;99.90;;;;;;5082889;28;19924;-83
2021/12/05 11:51:21;;;;;;;;;;;1.30;99.90;;;;;;5084247;28;19925;-83
2021/12/05 11:53:50;;;;;;;;;;;2.00;99.90;;;;;;5096753;28;19924;-85
2021/12/05 11:56:18;;;;;;;;;;;2.00;99.90;;;;;;5098695;28;19919;-85
2021/12/05 11:58:45;;;;;;;;;;;2.00;99.90;;;;;;5099570;28;19924;-83
2021/12/05 12:01:14;;;;;;;;;;;2.30;99.90;;;;;;5099681;28;20366;-85
2021/12/05 12:03:41;;;;;;;;;;;2.10;99.90;;;;;;5099638;28;19919;-86
2021/12/05 12:06:08;;;;;;;;;;;2.00;99.90;;;;;;5094910;28;20244;-86
2021/12/05 12:08:35;;;;;;;;;;;2.00;99.90;;;;;;5087347;28;19929;-85
2021/12/05 12:11:02;;;;;;;;;;;1.90;99.90;;;;;;5087491;28;19925;-86
2021/12/05 12:13:34;;;;;;;;;;;2.00;99.90;;;;;;5098179;28;19976;-82
2021/12/05 12:16:03;;;;;;;;;;;2.10;99.90;;;;;;5094647;28;19924;-85
2021/12/05 12:18:33;;;;;;;;;;;1.90;99.90;;;;;;5093447;28;20394;-86
2021/12/05 12:21:00;;;;;;;;;;;2.00;99.90;;;;;;5087923;28;19980;-85
2021/12/05 12:23:27;;;;;;;;;;;1.90;99.90;;;;;;5088344;28;19932;-83
2021/12/05 12:25:55;;;;;;;;;;;2.00;99.90;;;;;;5090220;28;19925;-84
2021/12/05 12:28:28;;;;;;;;;;;1.50;99.90;;;;;;5088757;28;19936;-86
2021/12/05 12:30:58;;;;;;;;;;;1.90;99.90;;;;;;5096725;28;19916;-84
2021/12/05 12:33:28;;;;;;;;;;;1.60;99.90;;;;;;5099488;28;19924;-86
2021/12/05 12:35:56;;;;;;;;;;;1.90;99.90;;;;;;5099094;28;19943;-85
2021/12/05 12:38:24;;;;;;;;;;;2.00;99.90;;;;;;5096634;28;19925;-84
2021/12/05 12:40:53;;;;;;;;;;;1.90;99.90;;;;;;5090096;28;19924;-85
2021/12/05 12:43:37;;;;;;;;;;;2.00;99.90;;;;;;5090774;28;19924;-85
2021/12/05 12:46:15;;;;;;;;;;;1.90;99.90;;;;;;5100175;22;19978;-85
2021/12/05 12:48:41;;;;;;;;;;;2.00;99.90;;;;;;5090549;28;19924;-84
2021/12/05 12:51:08;;;;;;;;;;;;;;;;;;5094818;28;19924;-86
2021/12/05 12:53:38;;;;;;;;;;;2.00;99.90;;;;;;5100228;28;19913;-86
2021/12/05 12:56:09;;;;;;;;;;;2.00;99.90;;;;;;5099899;28;19977;-86
2021/12/05 12:58:39;;;;;;;;;;;2.00;99.90;;;;;;5096788;28;20010;-84
2021/12/05 13:01:31;;;;;;;;;;;1.80;99.90;;;;;;5091287;28;19929;-85
2021/12/05 13:12:31;;;;;;;;;;;1.60;99.90;;;;;;5083039;28;19947;-85
2021/12/05 13:15:03;;;;;;;;;;;2.10;99.90;;;;;;5084003;28;19931;-85
2021/12/05 13:17:40;;;;;;;;;;;2.10;99.90;;;;;;5083596;28;19987;-85
2021/12/05 13:20:08;;;;;;;;;;;2.10;99.90;;;;;;5085868;28;19924;-85
2021/12/05 13:22:44;;;;;;;;;;;2.00;99.90;;;;;;5088735;28;19925;-86
2021/12/05 13:25:13;;;;;;;;;;;1.90;99.90;;;;;;5087685;28;19947;-86
2021/12/05 13:27:39;;;;;;;;;;;2.20;99.90;;;;;;5091164;28;19924;-86
2021/12/05 13:30:06;;;;;;;;;;;1.60;99.90;;;;;;5083676;28;19928;-85
2021/12/05 13:32:34;;;;;;;;;;;1.80;99.90;;;;;;5084995;28;19924;-85
2021/12/05 13:35:01;;;;;;;;;;;1.90;99.90;;;;;;5091802;28;19992;-85
2021/12/05 13:37:30;;;;;;;;;;;1.90;99.90;;;;;;5074983;28;20387;-85
2021/12/05 13:40:12;;;;;;;;;;;1.90;99.90;;;;;;5090839;28;19947;-85
2021/12/05 13:42:42;;;;;;;;;;;2.00;99.90;;;;;;5090839;28;19925;-86
2021/12/05 13:45:11;;;;;;;;;;;2.00;99.90;;;;;;5088758;28;20310;-85
2021/12/05 13:47:43;;;;;;;;;;;1.90;99.90;;;;;;5089540;28;19924;-85
2021/12/05 13:50:25;;;;;;;;;;;2.00;99.90;;;;;;5089100;28;19913;-85
2021/12/05 13:52:52;;;;;;;;;;;2.10;99.90;;;;;;5091033;28;19950;-86
2021/12/05 13:55:34;;;;;;;;;;;2.10;99.90;;;;;;5089158;28;19960;-85
2021/12/05 13:58:14;;;;;;;;;;;2.10;99.90;;;;;;5090186;28;20361;-85
2021/12/05 14:00:41;;;;;;;;;;;2.20;99.90;;;;;;5087163;28;19924;-86
2021/12/05 14:03:08;;;;;;;;;;;3.20;99.90;;;;;;5089737;28;19925;-86
2021/12/05 14:05:34;;;;;;;;;;;2.30;99.90;;;;;;5084168;28;19931;-86
2021/12/05 14:08:01;;;;;;;;;;;2.20;99.90;;;;;;5087279;28;19946;-86
2021/12/05 14:10:27;;;;;;;;;;;2.50;99.90;;;;;;5088055;28;19978;-85
2021/12/05 14:12:55;;;;;;;;;;;2.00;99.90;;;;;;5080527;28;19925;-85
2021/12/05 14:15:23;;;;;;;;;;;1.70;99.90;;;;;;5085775;28;19925;-85
2021/12/05 14:17:51;;;;;;;;;;;2.00;99.90;;;;;;5087130;28;20413;-87
2021/12/05 14:20:20;;;;;;;;;;;1.70;99.90;;;;;;5084236;28;19925;-86
2021/12/05 14:22:49;;;;;;;;;;;1.90;99.90;;;;;;5092460;28;19913;-85
2021/12/05 14:25:17;;;;;;;;;;;1.90;99.90;;;;;;5098167;28;19912;-85
2021/12/05 14:27:45;;;;;;;;;;;1.70;99.90;;;;;;5098653;28;19931;-86
2021/12/05 14:30:15;;;;;;;;;;;1.90;99.90;;;;;;5098722;28;19924;-86
2021/12/05 14:32:43;;;;;;;;;;;2.00;99.90;;;;;;5098266;28;19912;-86
2021/12/05 14:35:11;;;;;;;;;;;1.90;99.90;;;;;;5098386;28;19920;-86
2021/12/05 14:37:42;;;;;;;;;;;1.80;99.90;;;;;;5098363;28;19924;-86
2021/12/05 14:40:10;;;;;;;;;;;1.90;99.90;;;;;;5097567;28;19924;-86
2021/12/05 14:42:40;;;;;;;;;;;2.00;99.90;;;;;;5088561;28;19931;-86
2021/12/05 14:45:09;;;;;;;;;;;1.90;99.90;;;;;;5083009;28;19965;-85
2021/12/05 14:47:40;;;;;;;;;;;2.00;99.90;;;;;;5081674;28;19924;-85
2021/12/05 14:50:08;;;;;;;;;;;1.90;99.90;;;;;;5084636;28;19912;-86
2021/12/05 14:52:36;;;;;;;;;;;2.30;99.90;;;;;;5080079;28;19924;-86
2021/12/05 14:55:04;;;;;;;;;;;2.00;99.90;;;;;;5078303;28;20272;-86
2021/12/05 14:57:33;;;;;;;;;;;1.90;99.90;;;;;;5077757;28;20003;-86
2021/12/05 15:00:01;;;;;;;;;;;2.40;99.90;;;;;;5078098;28;19924;-86
2021/12/05 15:02:28;;;;;;;;;;;1.30;99.90;;;;;;5077351;28;20158;-86
2021/12/05 15:04:56;;;;;;;;;;;2.00;99.90;;;;;;5080650;28;19924;-86
2021/12/05 15:07:24;;;;;;;;;;;2.00;99.90;;;;;;5081596;28;19932;-85
2021/12/05 15:09:53;;;;;;;;;;;1.90;99.90;;;;;;5081699;28;19940;-85
2021/12/05 15:12:23;;;;;;;;;;;2.00;99.90;;;;;;5083408;28;19924;-85
2021/12/05 15:14:52;;;;;;;;;;;2.00;99.90;;;;;;5080350;28;19924;-86
2021/12/05 15:17:19;;;;;;;;;;;2.00;99.90;;;;;;5080312;28;20015;-86
2021/12/05 15:19:48;;;;;;;;;;;1.60;99.90;;;;;;5081121;28;19970;-85
2021/12/05 15:22:16;;;;;;;;;;;2.00;99.90;;;;;;5080818;28;19983;-85
2021/12/05 15:24:49;;;;;;;;;;;2.00;99.90;;;;;;5080801;28;19978;-85
2021/12/05 15:27:17;;;;;;;;;;;1.20;99.90;;;;;;5081796;28;19983;-85
2021/12/05 15:29:47;;;;;;;;;;;1.90;99.90;;;;;;5082860;28;20295;-85
2021/12/05 15:32:18;;;;;;;;;;;1.90;99.90;;;;;;5086427;28;19950;-85
2021/12/05 15:34:45;;;;;;;;;;;1.90;99.90;;;;;;5085875;28;19947;-85
2021/12/05 15:37:13;;;;;;;;;;;1.50;99.90;;;;;;5083392;28;19998;-85
2021/12/05 15:39:43;;;;;;;;;;;1.90;99.90;;;;;;5086284;28;19924;-85
2021/12/05 15:42:17;;;;;;;;;;;1.90;99.90;;;;;;5081119;28;20417;-85
2021/12/05 15:44:44;;;;;;;;;;;1.90;99.90;;;;;;5081836;28;19929;-85
2021/12/05 15:47:12;;;;;;;;;;;1.90;99.90;;;;;;5082239;28;19950;-85
2021/12/05 15:49:47;;;;;;;;;;;1.80;99.90;;;;;;5081123;28;19931;-85
2021/12/05 15:52:13;;;;;;;;;;;1.90;99.90;;;;;;5081556;28;19931;-85
2021/12/05 15:54:42;;;;;;;;;;;1.90;99.90;;;;;;5082630;28;20007;-85
2021/12/05 15:57:12;;;;;;;;;;;2.00;99.90;;;;;;5080497;28;19928;-86
2021/12/05 15:59:40;;;;;;;;;;;1.70;99.90;;;;;;5081053;28;19928;-85
2021/12/05 16:02:10;;;;;;;;;;;1.70;99.90;;;;;;5081634;28;19932;-85
2021/12/05 16:04:37;;;;;;;;;;;1.70;99.90;;;;;;5080550;28;19928;-85
2021/12/05 16:07:08;;;;;;;;;;;1.80;99.90;;;;;;5081764;28;19925;-85
2021/12/05 16:09:35;;;;;;;;;;;1.80;99.90;;;;;;5080649;28;19925;-85
2021/12/05 16:12:08;;;;;;;;;;;1.90;99.90;;;;;;5081753;28;19924;-85
2021/12/05 16:14:37;;;;;;;;;;;1.80;99.90;;;;;;5081653;28;19928;-85
2021/12/05 16:17:13;;;;;;;;;;;1.50;99.90;;;;;;5080979;28;19947;-85
2021/12/05 16:19:39;;;;;;;;;;;1.90;99.90;;;;;;5082619;28;19963;-86
2021/12/05 16:22:08;;;;;;;;;;;2.00;99.90;;;;;;5080373;28;19978;-86
2021/12/05 16:24:36;;;;;;;;;;;1.90;99.90;;;;;;5079150;28;19970;-86
2021/12/05 16:27:05;;;;;;;;;;;1.90;99.90;;;;;;5088155;28;19924;-86
2021/12/05 16:29:33;;;;;;;;;;;1.70;99.90;;;;;;5097041;28;19990;-86
2021/12/05 16:32:00;;;;;;;;;;;1.60;99.90;;;;;;5086466;28;19924;-86
2021/12/05 16:34:28;;;;;;;;;;;1.90;99.90;;;;;;5084603;28;19963;-86
2021/12/05 16:36:58;;;;;;;;;;;1.90;99.90;;;;;;5084562;28;19987;-86
2021/12/05 16:39:33;;;;;;;;;;;1.90;99.90;;;;;;5085252;28;19970;-86
2021/12/05 16:42:01;;;;;;;;;;;1.90;99.90;;;;;;5090341;28;19925;-86
2021/12/05 16:44:28;;;;;;;;;;;2.00;99.90;;;;;;5088588;28;19924;-86
2021/12/05 16:46:57;;;;;;;;;;;1.90;99.90;;;;;;5087297;28;19924;-86
2021/12/05 16:49:25;;;;;;;;;;;1.90;99.90;;;;;;5093371;28;19974;-85
2021/12/05 16:51:52;;;;;;;;;;;1.90;99.90;;;;;;5089719;28;19924;-85
2021/12/05 16:54:21;;;;;;;;;;;1.90;99.90;;;;;;5088808;28;19939;-85
2021/12/05 16:56:51;;;;;;;;;;;1.50;99.90;;;;;;5093532;28;19925;-85
2021/12/05 16:59:19;;;;;;;;;;;1.70;99.90;;;;;;5085495;28;20364;-85
2021/12/05 17:01:46;;;;;;;;;;;1.90;99.90;;;;;;5082623;28;19924;-86
2021/12/05 17:04:14;;;;;;;;;;;1.70;99.90;;;;;;5083364;28;19924;-85
2021/12/05 17:06:51;;;;;;;;;;;1.80;99.90;;;;;;5087738;28;19928;-85
2021/12/05 17:09:18;;;;;;;;;;;1.80;99.90;;;;;;5086141;28;19974;-84
2021/12/05 17:11:45;;;;;;;;;;;2.30;99.90;;;;;;5084218;28;19924;-85
2021/12/05 17:14:25;;;;;;;;;;;1.90;99.90;;;;;;5085924;28;19925;-85
2021/12/05 17:16:52;;;;;;;;;;;2.00;99.90;;;;;;5094504;28;19912;-84
2021/12/05 17:19:24;;;;;;;;;;;2.00;99.90;;;;;;5097354;28;19987;-85
2021/12/05 17:21:50;;;;;;;;;;;1.90;99.90;;;;;;5098509;28;19912;-85
2021/12/05 17:24:19;;;;;;;;;;;1.90;99.90;;;;;;5097515;28;19924;-84
2021/12/05 17:26:48;;;;;;;;;;;0.80;99.90;;;;;;5088181;28;19971;-85
2021/12/05 17:29:17;;;;;;;;;;;1.80;99.90;;;;;;5084503;28;19995;-85
2021/12/05 17:31:44;;;;;;;;;;;1.90;99.90;;;;;;5083068;28;19934;-85
2021/12/05 17:34:13;;;;;;;;;;;1.90;99.90;;;;;;5087747;28;19924;-86
2021/12/05 17:36:41;;;;;;;;;;;1.90;99.90;;;;;;5082538;28;19932;-86
2021/12/05 17:39:10;;;;;;;;;;;1.80;99.90;;;;;;5082779;28;19971;-85
2021/12/05 17:41:37;;;;;;;;;;;1.80;99.90;;;;;;5086124;28;19946;-84
2021/12/05 17:44:05;;;;;;;;;;;1.60;99.90;;;;;;5085937;28;20337;-84
2021/12/05 17:46:33;;;;;;;;;;;1.80;99.90;;;;;;5081589;28;19924;-84
2021/12/05 17:49:03;;;;;;;;;;;1.80;99.90;;;;;;5084443;28;19981;-86
2021/12/05 17:51:36;;;;;;;;;;;1.90;99.90;;;;;;5085298;28;19925;-84
2021/12/05 17:57:03;;;;;;;;;;;1.80;99.90;;;;;;5078681;28;19925;-84
2021/12/05 17:59:46;;;;;;;;;;;;;;;;;;5086723;28;19984;-85
2021/12/05 18:04:57;;;;;;;;;;;1.90;99.90;;;;;;5082976;28;20426;-85
2021/12/05 18:07:24;;;;;;;;;;;1.90;99.90;;;;;;5083436;28;19932;-85
2021/12/05 18:09:52;;;;;;;;;;;0.60;99.90;;;;;;5083052;28;19962;-84
2021/12/05 18:12:22;;;;;;;;;;;1.90;99.90;;;;;;5083898;28;20294;-85
2021/12/05 18:14:48;;;;;;;;;;;1.90;99.90;;;;;;5082071;28;19925;-85
2021/12/05 18:17:15;;;;;;;;;;;1.90;99.90;;;;;;5081739;28;19925;-85
2021/12/05 18:19:43;;;;;;;;;;;2.00;99.90;;;;;;5081324;28;19924;-85
2021/12/05 18:22:10;;;;;;;;;;;2.00;99.90;;;;;;5081065;28;19928;-84
2021/12/05 18:24:37;;;;;;;;;;;2.00;99.90;;;;;;5085228;28;19929;-85
2021/12/05 18:27:05;;;;;;;;;;;1.90;99.90;;;;;;5082635;28;19924;-85
2021/12/05 18:29:32;;;;;;;;;;;1.80;99.90;;;;;;5081547;28;19947;-84
2021/12/05 18:32:00;;;;;;;;;;;1.90;99.90;;;;;;5081749;28;20376;-85
2021/12/05 18:34:29;;;;;;;;;;;1.90;99.90;;;;;;5082317;28;20020;-85
2021/12/05 18:36:57;;;;;;;;;;;3.00;99.90;;;;;;5079946;28;19929;-85